Time,TemperatureF,DewpointF,PressureIn,WindDirection,WindDirectionDegrees,WindSpeedMPH,WindSpeedGustMPH,Humidity,HourlyPrecipIn,Conditions,Clouds,dailyrainin,SoftwareType,DateUTC
2013-07-24 00:01:00,71.8,68.7,29.83,SW,225,0.0,3.2,90,0.00,,,0.00,VWS V14.01,2013-07-24 04:01:00,
2013-07-24 00:06:00,71.6,68.8,29.83,SW,234,0.0,1.6,91,0.00,,,0.00,VWS V14.01,2013-07-24 04:06:00,
2013-07-24 00:11:00,71.4,69.0,29.83,SW,228,0.0,0.0,92,0.00,,,0.00,VWS V14.01,2013-07-24 04:11:00,
2013-07-24 00:16:00,71.1,68.7,29.83,SW,228,1.6,3.2,92,0.00,,,0.00,VWS V14.01,2013-07-24 04:16:00,
2013-07-24 00:21:00,71.0,68.9,29.83,SW,235,0.0,1.6,93,0.00,,,0.00,VWS V14.01,2013-07-24 04:21:00,
2013-07-24 00:26:00,70.8,68.7,29.83,SW,235,0.0,0.0,93,0.00,,,0.00,VWS V14.01,2013-07-24 04:26:00,
2013-07-24 00:31:00,70.6,68.5,29.83,SW,235,0.0,1.6,93,0.00,,,0.00,VWS V14.01,2013-07-24 04:31:00,
2013-07-24 00:36:00,70.4,68.3,29.83,SW,235,0.0,0.0,93,0.00,,,0.00,VWS V14.01,2013-07-24 04:36:00,
2013-07-24 00:41:00,70.3,68.2,29.83,SSW,213,0.0,1.6,93,0.00,,,0.00,VWS V14.01,2013-07-24 04:41:00,
2013-07-24 00:46:00,70.2,68.1,29.83,SSW,211,0.0,1.6,93,0.00,,,0.00,VWS V14.01,2013-07-24 04:46:00,
2013-07-24 00:51:00,70.1,68.3,29.83,SSW,197,0.0,0.0,94,0.00,,,0.00,VWS V14.01,2013-07-24 04:51:00,
2013-07-24 00:56:00,70.1,68.3,29.83,SSW,197,0.0,0.0,94,0.00,,,0.00,VWS V14.01,2013-07-24 04:56:00,
2013-07-24 01:01:00,69.9,68.1,29.83,SSW,196,0.0,0.0,94,0.00,,,0.00,VWS V14.01,2013-07-24 05:01:00,
2013-07-24 01:06:00,69.9,68.1,29.83,SSW,197,0.0,1.6,94,0.00,,,0.00,VWS V14.01,2013-07-24 05:06:00,
2013-07-24 01:11:00,69.9,68.1,29.83,SSW,197,1.6,1.6,94,0.00,,,0.00,VWS V14.01,2013-07-24 05:11:00,
2013-07-24 01:16:00,69.6,67.8,29.83,SSW,197,0.0,0.0,94,0.00,,,0.00,VWS V14.01,2013-07-24 05:16:00,
2013-07-24 01:21:00,69.6,68.1,29.83,SSW,197,0.0,0.0,95,0.00,,,0.00,VWS V14.01,2013-07-24 05:21:00,
2013-07-24 01:26:00,69.5,68.0,29.83,SSW,197,0.0,0.0,95,0.00,,,0.00,VWS V14.01,2013-07-24 05:26:00,
2013-07-24 01:31:00,69.4,67.9,29.83,East,86,0.0,1.6,95,0.00,,,0.00,VWS V14.01,2013-07-24 05:31:00,
2013-07-24 01:36:00,69.3,67.8,29.83,East,87,0.0,0.0,95,0.00,,,0.00,VWS V14.01,2013-07-24 05:36:00,
2013-07-24 01:41:00,69.3,67.8,29.84,SE,125,0.0,0.0,95,0.00,,,0.00,VWS V14.01,2013-07-24 05:41:00,
2013-07-24 01:46:00,69.4,67.9,29.84,SE,139,0.0,0.0,95,0.00,,,0.00,VWS V14.01,2013-07-24 05:46:00,
2013-07-24 01:51:00,69.5,68.0,29.84,SE,139,0.0,0.0,95,0.00,,,0.00,VWS V14.01,2013-07-24 05:51:00,
2013-07-24 01:56:00,69.6,68.1,29.84,SE,140,0.0,0.0,95,0.00,,,0.00,VWS V14.01,2013-07-24 05:56:00,
2013-07-24 02:01:00,69.7,68.2,29.84,SE,139,0.0,0.0,95,0.00,,,0.00,VWS V14.01,2013-07-24 06:01:00,
2013-07-24 02:06:00,69.8,68.3,29.84,SE,140,0.0,0.0,95,0.00,,,0.00,VWS V14.01,2013-07-24 06:06:00,
2013-07-24 02:11:00,69.8,68.3,29.84,SE,140,0.0,0.0,95,0.00,,,0.00,VWS V14.01,2013-07-24 06:11:00,
2013-07-24 02:16:00,70.0,68.8,29.84,SE,139,0.0,0.0,96,0.00,,,0.00,VWS V14.01,2013-07-24 06:16:00,
2013-07-24 02:21:00,70.1,68.9,29.84,ENE,61,0.0,3.2,96,0.00,,,0.00,VWS V14.01,2013-07-24 06:21:00,
2013-07-24 02:26:00,70.1,68.9,29.84,ENE,58,1.6,1.6,96,0.00,,,0.00,VWS V14.01,2013-07-24 06:26:00,
2013-07-24 02:31:00,70.0,68.5,29.84,NNE,27,0.0,0.0,95,0.00,,,0.00,VWS V14.01,2013-07-24 06:31:00,
2013-07-24 02:36:00,70.1,68.9,29.84,NW,304,0.0,3.2,96,0.00,,,0.00,VWS V14.01,2013-07-24 06:36:00,
2013-07-24 02:41:00,70.1,68.9,29.84,NE,45,3.2,3.2,96,0.00,,,0.00,VWS V14.01,2013-07-24 06:41:00,
2013-07-24 02:46:00,69.9,68.4,29.84,NW,324,4.8,9.6,95,0.00,,,0.00,VWS V14.01,2013-07-24 06:46:00,
2013-07-24 02:51:00,69.5,67.7,29.85,ENE,60,1.6,4.8,94,0.00,,,0.00,VWS V14.01,2013-07-24 06:51:00,
2013-07-24 02:56:00,68.9,66.2,29.85,NW,316,4.8,12.8,91,0.00,,,0.00,VWS V14.01,2013-07-24 06:56:00,
2013-07-24 03:01:00,68.7,65.3,29.85,NNW,335,12.8,12.8,89,0.00,,,0.00,VWS V14.01,2013-07-24 07:01:00,
2013-07-24 03:06:00,68.5,64.5,29.85,North,355,1.6,9.6,87,0.00,,,0.00,VWS V14.01,2013-07-24 07:06:00,
2013-07-24 03:11:00,68.3,64.3,29.85,NW,319,8.0,9.6,87,0.00,,,0.00,VWS V14.01,2013-07-24 07:11:00,
2013-07-24 03:16:00,68.0,64.0,29.85,North,11,3.2,4.8,87,0.00,,,0.00,VWS V14.01,2013-07-24 07:16:00,
2013-07-24 03:20:00,67.8,63.8,29.85,NNW,333,4.8,6.4,87,0.00,,,0.00,VWS V14.01,2013-07-24 07:20:00,
2013-07-24 03:25:00,67.7,63.4,29.85,NE,56,3.2,12.8,86,0.00,,,0.00,VWS V14.01,2013-07-24 07:25:00,
2013-07-24 03:30:00,67.7,63.4,29.85,NE,34,3.2,8.0,86,0.00,,,0.00,VWS V14.01,2013-07-24 07:30:00,
2013-07-24 03:35:00,67.7,63.4,29.85,NNE,20,6.4,8.0,86,0.00,,,0.00,VWS V14.01,2013-07-24 07:35:00,
2013-07-24 03:40:00,67.7,63.4,29.85,North,4,6.4,6.4,86,0.00,,,0.00,VWS V14.01,2013-07-24 07:40:00,
2013-07-24 03:45:00,67.7,63.0,29.85,NE,40,4.8,8.0,85,0.00,,,0.00,VWS V14.01,2013-07-24 07:45:00,
2013-07-24 03:50:00,67.7,63.4,29.85,NNE,28,4.8,11.2,86,0.00,,,0.00,VWS V14.01,2013-07-24 07:50:00,
2013-07-24 03:55:00,67.6,63.3,29.85,North,359,6.4,12.8,86,0.00,,,0.00,VWS V14.01,2013-07-24 07:55:00,
2013-07-24 04:00:00,67.5,63.2,29.85,NE,40,4.8,8.0,86,0.00,,,0.00,VWS V14.01,2013-07-24 08:00:00,
2013-07-24 04:05:00,67.3,63.0,29.85,NE,54,0.0,6.4,86,0.00,,,0.00,VWS V14.01,2013-07-24 08:05:00,
2013-07-24 04:10:00,67.1,63.1,29.85,NNW,333,3.2,9.6,87,0.00,,,0.00,VWS V14.01,2013-07-24 08:10:00,
2013-07-24 04:15:00,67.0,63.0,29.86,NW,326,0.0,6.4,87,0.00,,,0.00,VWS V14.01,2013-07-24 08:15:00,
2013-07-24 04:20:00,66.8,63.1,29.86,NNW,344,1.6,1.6,88,0.00,,,0.00,VWS V14.01,2013-07-24 08:20:00,
2013-07-24 04:25:00,66.5,62.8,29.86,North,355,0.0,1.6,88,0.00,,,0.00,VWS V14.01,2013-07-24 08:25:00,
2013-07-24 04:30:00,66.3,62.6,29.86,North,355,0.0,1.6,88,0.00,,,0.00,VWS V14.01,2013-07-24 08:30:00,
2013-07-24 04:35:00,66.0,62.7,29.86,North,355,0.0,1.6,89,0.00,,,0.00,VWS V14.01,2013-07-24 08:35:00,
2013-07-24 04:40:00,65.9,62.6,29.86,North,355,3.2,3.2,89,0.00,,,0.00,VWS V14.01,2013-07-24 08:40:00,
2013-07-24 04:45:00,65.8,62.5,29.86,North,7,0.0,4.8,89,0.00,,,0.00,VWS V14.01,2013-07-24 08:45:00,
2013-07-24 04:50:00,65.7,62.4,29.86,NNW,336,1.6,3.2,89,0.00,,,0.00,VWS V14.01,2013-07-24 08:50:00,
2013-07-24 04:55:00,65.6,62.3,29.86,West,276,0.0,4.8,89,0.00,,,0.00,VWS V14.01,2013-07-24 08:55:00,
2013-07-24 05:00:00,65.5,62.2,29.86,NE,35,1.6,3.2,89,0.00,,,0.00,VWS V14.01,2013-07-24 09:00:00,
2013-07-24 05:05:00,65.5,62.2,29.86,NNW,336,9.6,9.6,89,0.00,,,0.00,VWS V14.01,2013-07-24 09:05:00,
2013-07-24 05:10:00,65.5,61.9,29.86,NNW,346,3.2,8.0,88,0.00,,,0.00,VWS V14.01,2013-07-24 09:10:00,
2013-07-24 05:15:00,65.5,61.9,29.87,NW,309,0.0,3.2,88,0.00,,,0.00,VWS V14.01,2013-07-24 09:15:00,
2013-07-24 05:20:00,65.3,61.7,29.86,NNE,15,4.8,6.4,88,0.00,,,0.00,VWS V14.01,2013-07-24 09:20:00,
2013-07-24 05:25:00,65.3,61.7,29.86,NE,47,4.8,4.8,88,0.00,,,0.00,VWS V14.01,2013-07-24 09:25:00,
2013-07-24 05:30:00,65.3,61.7,29.86,North,358,0.0,3.2,88,0.00,,,0.00,VWS V14.01,2013-07-24 09:30:00,
2013-07-24 05:35:00,65.2,61.6,29.87,ENE,62,0.0,0.0,88,0.00,,,0.00,VWS V14.01,2013-07-24 09:35:00,
2013-07-24 05:40:00,65.0,61.4,29.87,NNE,25,3.2,3.2,88,0.00,,,0.00,VWS V14.01,2013-07-24 09:40:00,
2013-07-24 05:45:00,64.9,61.3,29.88,NNE,21,4.8,4.8,88,0.00,,,0.00,VWS V14.01,2013-07-24 09:45:00,
2013-07-24 05:50:00,64.6,61.0,29.88,West,260,0.0,1.6,88,0.00,,,0.00,VWS V14.01,2013-07-24 09:50:00,
2013-07-24 05:55:00,64.4,60.8,29.88,NNE,22,0.0,3.2,88,0.00,,,0.00,VWS V14.01,2013-07-24 09:55:00,
2013-07-24 06:00:00,64.2,60.6,29.88,NW,323,3.2,6.4,88,0.00,,,0.00,VWS V14.01,2013-07-24 10:00:00,
2013-07-24 06:05:00,64.2,60.6,29.88,NNE,33,0.0,3.2,88,0.00,,,0.00,VWS V14.01,2013-07-24 10:05:00,
2013-07-24 06:10:00,64.0,60.4,29.88,North,355,0.0,3.2,88,0.00,,,0.00,VWS V14.01,2013-07-24 10:10:00,
2013-07-24 06:15:00,63.9,60.3,29.88,NNE,28,1.6,4.8,88,0.00,,,0.00,VWS V14.01,2013-07-24 10:15:00,
2013-07-24 06:20:00,63.8,60.2,29.88,NNE,18,0.0,3.2,88,0.00,,,0.00,VWS V14.01,2013-07-24 10:20:00,
2013-07-24 06:25:00,63.7,60.1,29.89,NE,46,0.0,4.8,88,0.00,,,0.00,VWS V14.01,2013-07-24 10:25:00,
2013-07-24 06:30:00,63.6,60.0,29.89,NNW,344,0.0,3.2,88,0.00,,,0.00,VWS V14.01,2013-07-24 10:30:00,
2013-07-24 06:35:00,63.6,59.7,29.89,North,355,0.0,6.4,87,0.00,,,0.00,VWS V14.01,2013-07-24 10:35:00,
2013-07-24 06:40:00,63.6,59.7,29.89,North,354,1.6,6.4,87,0.00,,,0.00,VWS V14.01,2013-07-24 10:40:00,
2013-07-24 06:45:00,63.5,59.6,29.90,NNE,27,0.0,4.8,87,0.00,,,0.00,VWS V14.01,2013-07-24 10:45:00,
2013-07-24 06:50:00,63.4,59.5,29.89,NNE,33,4.8,4.8,87,0.00,,,0.00,VWS V14.01,2013-07-24 10:50:00,
2013-07-24 06:55:00,63.5,59.6,29.90,NNE,18,0.0,1.6,87,0.00,,,0.00,VWS V14.01,2013-07-24 10:55:00,
2013-07-24 07:00:00,63.4,59.5,29.90,NW,324,1.6,1.6,87,0.00,,,0.00,VWS V14.01,2013-07-24 11:00:00,
2013-07-24 07:05:00,63.4,59.5,29.90,NW,324,1.6,1.6,87,0.00,,,0.00,VWS V14.01,2013-07-24 11:05:00,
2013-07-24 07:10:00,63.4,59.5,29.91,NNW,333,1.6,3.2,87,0.00,,,0.00,VWS V14.01,2013-07-24 11:10:00,
2013-07-24 07:15:00,63.5,59.6,29.91,NNE,14,1.6,4.8,87,0.00,,,0.00,VWS V14.01,2013-07-24 11:15:00,
2013-07-24 07:20:00,63.7,59.8,29.91,WNW,294,0.0,0.0,87,0.00,,,0.00,VWS V14.01,2013-07-24 11:20:00,
2013-07-24 07:25:00,64.0,60.1,29.91,NNE,25,0.0,3.2,87,0.00,,,0.00,VWS V14.01,2013-07-24 11:25:00,
2013-07-24 07:30:00,64.1,59.8,29.90,NNE,28,1.6,4.8,86,0.00,,,0.00,VWS V14.01,2013-07-24 11:30:00,
2013-07-24 07:35:00,64.4,60.5,29.90,NNE,14,4.8,4.8,87,0.00,,,0.00,VWS V14.01,2013-07-24 11:35:00,
2013-07-24 07:40:00,64.4,60.1,29.90,NNE,30,3.2,3.2,86,0.00,,,0.00,VWS V14.01,2013-07-24 11:40:00,
2013-07-24 07:45:00,64.6,60.7,29.91,NNE,30,1.6,3.2,87,0.00,,,0.00,VWS V14.01,2013-07-24 11:45:00,
2013-07-24 07:50:00,64.7,60.4,29.91,NNE,25,4.8,6.4,86,0.00,,,0.00,VWS V14.01,2013-07-24 11:50:00,
2013-07-24 07:55:00,64.7,60.4,29.91,NNE,16,3.2,9.6,86,0.00,,,0.00,VWS V14.01,2013-07-24 11:55:00,
2013-07-24 08:00:00,64.5,59.9,29.91,NNE,20,6.4,12.8,85,0.00,,,0.00,VWS V14.01,2013-07-24 12:00:00,
2013-07-24 08:05:00,64.3,60.0,29.91,North,5,4.8,9.6,86,0.00,,,0.00,VWS V14.01,2013-07-24 12:05:00,
2013-07-24 08:10:00,64.3,60.0,29.91,NNE,27,0.0,6.4,86,0.00,,,0.00,VWS V14.01,2013-07-24 12:10:00,
2013-07-24 08:15:00,64.3,59.7,29.91,North,5,9.6,12.8,85,0.00,,,0.00,VWS V14.01,2013-07-24 12:15:00,
2013-07-24 08:20:00,64.2,59.9,29.91,NE,36,3.2,8.0,86,0.00,,,0.00,VWS V14.01,2013-07-24 12:20:00,
2013-07-24 08:25:00,64.2,59.9,29.91,NNE,30,4.8,11.2,86,0.00,,,0.00,VWS V14.01,2013-07-24 12:25:00,
2013-07-24 08:30:00,64.2,60.3,29.91,North,358,6.4,6.4,87,0.00,,,0.00,VWS V14.01,2013-07-24 12:30:00,
2013-07-24 08:35:00,64.2,59.9,29.91,NE,35,4.8,11.2,86,0.00,,,0.00,VWS V14.01,2013-07-24 12:35:00,
2013-07-24 08:40:00,64.1,59.8,29.92,NNE,13,3.2,8.0,86,0.00,,,0.00,VWS V14.01,2013-07-24 12:40:00,
2013-07-24 08:45:00,64.2,59.9,29.91,NE,36,3.2,4.8,86,0.00,,,0.00,VWS V14.01,2013-07-24 12:45:00,
2013-07-24 08:50:00,64.2,59.9,29.91,ENE,72,4.8,4.8,86,0.00,,,0.00,VWS V14.01,2013-07-24 12:50:00,
2013-07-24 08:55:00,64.3,60.3,29.91,NE,34,1.6,4.8,87,0.00,,,0.00,VWS V14.01,2013-07-24 12:55:00,
2013-07-24 09:00:00,64.4,60.1,29.91,NE,44,1.6,8.0,86,0.00,,,0.00,VWS V14.01,2013-07-24 13:00:00,
2013-07-24 09:05:00,64.5,60.2,29.91,NE,43,4.8,8.0,86,0.00,,,0.00,VWS V14.01,2013-07-24 13:05:00,
2013-07-24 09:10:00,64.6,60.3,29.91,NNE,16,8.0,8.0,86,0.00,,,0.00,VWS V14.01,2013-07-24 13:10:00,
2013-07-24 09:15:00,64.6,60.3,29.92,NW,325,1.6,4.8,86,0.00,,,0.00,VWS V14.01,2013-07-24 13:15:00,
2013-07-24 09:20:00,64.8,60.5,29.92,NE,44,3.2,4.8,86,0.00,,,0.00,VWS V14.01,2013-07-24 13:20:00,
2013-07-24 09:25:00,65.2,60.6,29.93,NNE,26,3.2,4.8,85,0.00,,,0.00,VWS V14.01,2013-07-24 13:25:00,
2013-07-24 09:30:00,65.4,60.8,29.93,North,355,8.0,9.6,85,0.00,,,0.00,VWS V14.01,2013-07-24 13:30:00,
2013-07-24 09:35:00,65.3,60.7,29.93,NNE,19,4.8,4.8,85,0.00,,,0.00,VWS V14.01,2013-07-24 13:35:00,
2013-07-24 09:40:00,65.4,60.8,29.93,NNW,331,3.2,8.0,85,0.00,,,0.00,VWS V14.01,2013-07-24 13:40:00,
2013-07-24 09:45:00,65.6,61.0,29.93,NW,319,3.2,6.4,85,0.00,,,0.00,VWS V14.01,2013-07-24 13:45:00,
2013-07-24 09:50:00,66.0,61.0,29.93,NW,317,3.2,6.4,84,0.00,,,0.00,VWS V14.01,2013-07-24 13:50:00,
2013-07-24 09:55:00,66.2,61.2,29.93,North,2,1.6,11.2,84,0.00,,,0.00,VWS V14.01,2013-07-24 13:55:00,
2013-07-24 10:00:00,66.4,61.1,29.93,NE,54,6.4,11.2,83,0.00,,,0.00,VWS V14.01,2013-07-24 14:00:00,
2013-07-24 10:05:00,66.8,61.5,29.93,NNE,25,6.4,9.6,83,0.00,,,0.00,VWS V14.01,2013-07-24 14:05:00,
2013-07-24 10:10:00,66.7,61.0,29.93,NE,46,3.2,8.0,82,0.00,,,0.00,VWS V14.01,2013-07-24 14:10:00,
2013-07-24 10:15:00,66.8,61.1,29.93,NE,40,4.8,8.0,82,0.00,,,0.00,VWS V14.01,2013-07-24 14:15:00,
2013-07-24 10:20:00,67.0,61.3,29.93,NNE,18,9.6,11.2,82,0.00,,,0.00,VWS V14.01,2013-07-24 14:20:00,
2013-07-24 10:25:00,66.9,61.2,29.93,ENE,62,6.4,6.4,82,0.00,,,0.00,VWS V14.01,2013-07-24 14:25:00,
2013-07-24 10:30:00,67.3,62.0,29.93,WNW,293,3.2,6.4,83,0.00,,,0.00,VWS V14.01,2013-07-24 14:30:00,
2013-07-24 10:35:00,67.6,61.9,29.93,NW,322,3.2,6.4,82,0.00,,,0.00,VWS V14.01,2013-07-24 14:35:00,
2013-07-24 10:40:00,67.4,61.4,29.93,North,11,1.6,8.0,81,0.00,,,0.00,VWS V14.01,2013-07-24 14:40:00,
2013-07-24 10:45:00,67.7,62.0,29.93,NE,40,8.0,11.2,82,0.00,,,0.00,VWS V14.01,2013-07-24 14:45:00,
2013-07-24 10:50:00,67.7,62.0,29.93,North,8,3.2,8.0,82,0.00,,,0.00,VWS V14.01,2013-07-24 14:50:00,
2013-07-24 10:54:00,67.9,62.2,29.93,NNW,340,1.6,6.4,82,0.00,,,0.00,VWS V14.01,2013-07-24 14:54:00,
2013-07-24 10:59:00,68.7,62.6,29.93,ENE,61,3.2,8.0,81,0.00,,,0.00,VWS V14.01,2013-07-24 14:59:00,
2013-07-24 11:04:00,69.0,62.9,29.94,West,260,4.8,8.0,81,0.00,,,0.00,VWS V14.01,2013-07-24 15:04:00,
2013-07-24 11:09:00,69.1,62.7,29.94,NW,307,8.0,8.0,80,0.00,,,0.00,VWS V14.01,2013-07-24 15:09:00,
2013-07-24 11:14:00,69.3,62.5,29.93,NE,39,8.0,9.6,79,0.00,,,0.00,VWS V14.01,2013-07-24 15:14:00,
2013-07-24 11:19:00,69.7,63.3,29.93,NNE,16,12.8,14.4,80,0.00,,,0.00,VWS V14.01,2013-07-24 15:19:00,
2013-07-24 11:24:00,69.2,62.4,29.94,ENE,62,1.6,6.4,79,0.00,,,0.00,VWS V14.01,2013-07-24 15:24:00,
2013-07-24 11:29:00,69.7,62.9,29.94,NE,47,3.2,6.4,79,0.00,,,0.00,VWS V14.01,2013-07-24 15:29:00,
2013-07-24 11:34:00,70.4,62.8,29.93,NNE,16,8.0,8.0,77,0.00,,,0.00,VWS V14.01,2013-07-24 15:34:00,
2013-07-24 11:39:00,71.0,63.8,29.93,NW,311,8.0,8.0,78,0.00,,,0.00,VWS V14.01,2013-07-24 15:39:00,
2013-07-24 11:44:00,70.9,63.0,29.93,NNW,345,9.6,11.2,76,0.00,,,0.00,VWS V14.01,2013-07-24 15:44:00,
2013-07-24 11:49:00,70.8,63.6,29.93,West,268,1.6,4.8,78,0.00,,,0.00,VWS V14.01,2013-07-24 15:49:00,
2013-07-24 11:54:00,71.0,62.7,29.93,NNE,27,6.4,11.2,75,0.00,,,0.00,VWS V14.01,2013-07-24 15:54:00,
2013-07-24 11:59:00,71.1,63.5,29.94,NE,46,3.2,4.8,77,0.00,,,0.00,VWS V14.01,2013-07-24 15:59:00,
2013-07-24 12:04:00,70.7,62.0,29.94,NNE,30,8.0,11.2,74,0.00,,,0.00,VWS V14.01,2013-07-24 16:04:00,
2013-07-24 12:09:00,70.8,63.2,29.94,North,351,9.6,16.0,77,0.00,,,0.00,VWS V14.01,2013-07-24 16:09:00,
2013-07-24 12:14:00,70.9,63.0,29.94,NE,47,8.0,12.8,76,0.00,,,0.00,VWS V14.01,2013-07-24 16:14:00,
2013-07-24 12:19:00,70.8,62.9,29.94,ESE,118,1.6,8.0,76,0.00,,,0.00,VWS V14.01,2013-07-24 16:19:00,
2013-07-24 12:24:00,71.1,62.8,29.94,NNW,343,6.4,11.2,75,0.00,,,0.00,VWS V14.01,2013-07-24 16:24:00,
2013-07-24 12:29:00,71.2,62.9,29.94,NNW,343,4.8,9.6,75,0.00,,,0.00,VWS V14.01,2013-07-24 16:29:00,
2013-07-24 12:34:00,71.1,62.8,29.94,North,4,3.2,8.0,75,0.00,,,0.00,VWS V14.01,2013-07-24 16:34:00,
2013-07-24 12:39:00,71.8,63.8,29.94,NE,47,1.6,8.0,76,0.00,,,0.00,VWS V14.01,2013-07-24 16:39:00,
2013-07-24 12:44:00,72.6,63.5,29.95,North,358,4.8,9.6,73,0.00,,,0.00,VWS V14.01,2013-07-24 16:44:00,
2013-07-24 12:49:00,73.1,63.5,29.95,NNW,340,3.2,9.6,72,0.00,,,0.00,VWS V14.01,2013-07-24 16:49:00,
2013-07-24 12:54:00,72.5,63.0,29.95,NNE,32,3.2,8.0,72,0.00,,,0.00,VWS V14.01,2013-07-24 16:54:00,
2013-07-24 12:59:00,72.0,61.7,29.95,NE,48,6.4,9.6,70,0.00,,,0.00,VWS V14.01,2013-07-24 16:59:00,
2013-07-24 13:04:00,72.5,63.0,29.95,NNE,33,3.2,4.8,72,0.00,,,0.00,VWS V14.01,2013-07-24 17:04:00,
2013-07-24 13:09:00,72.9,63.0,29.95,WNW,291,3.2,6.4,71,0.00,,,0.00,VWS V14.01,2013-07-24 17:09:00,
2013-07-24 13:14:00,73.2,63.6,29.95,NW,326,4.8,6.4,72,0.00,,,0.00,VWS V14.01,2013-07-24 17:14:00,
2013-07-24 13:19:00,73.2,63.2,29.95,SW,235,1.6,8.0,71,0.00,,,0.00,VWS V14.01,2013-07-24 17:19:00,
2013-07-24 13:24:00,73.0,63.5,29.95,NNE,28,3.2,8.0,72,0.00,,,0.00,VWS V14.01,2013-07-24 17:24:00,
2013-07-24 13:29:00,73.1,63.2,29.95,NE,36,8.0,11.2,71,0.00,,,0.00,VWS V14.01,2013-07-24 17:29:00,
2013-07-24 13:34:00,73.2,64.0,29.95,NNE,20,3.2,9.6,73,0.00,,,0.00,VWS V14.01,2013-07-24 17:34:00,
2013-07-24 13:39:00,73.0,64.2,29.95,NNW,330,3.2,9.6,74,0.00,,,0.00,VWS V14.01,2013-07-24 17:39:00,
2013-07-24 13:44:00,73.3,65.7,29.95,NNE,13,6.4,9.6,77,0.00,,,0.00,VWS V14.01,2013-07-24 17:44:00,
2013-07-24 13:49:00,73.9,63.9,29.95,NE,40,6.4,12.8,71,0.00,,,0.00,VWS V14.01,2013-07-24 17:49:00,
2013-07-24 13:54:00,73.7,63.7,29.95,NE,51,4.8,9.6,71,0.00,,,0.00,VWS V14.01,2013-07-24 17:54:00,
2013-07-24 13:59:00,73.8,63.4,29.95,ENE,71,4.8,11.2,70,0.00,,,0.00,VWS V14.01,2013-07-24 17:59:00,
2013-07-24 14:04:00,74.3,64.3,29.94,NE,48,3.2,8.0,71,0.00,,,0.00,VWS V14.01,2013-07-24 18:04:00,
2013-07-24 14:09:00,74.4,64.0,29.95,ENE,62,3.2,6.4,70,0.00,,,0.00,VWS V14.01,2013-07-24 18:09:00,
2013-07-24 14:14:00,74.4,64.0,29.95,East,87,6.4,6.4,70,0.00,,,0.00,VWS V14.01,2013-07-24 18:14:00,
2013-07-24 14:19:00,74.9,64.1,29.95,East,82,1.6,6.4,69,0.00,,,0.00,VWS V14.01,2013-07-24 18:19:00,
2013-07-24 14:24:00,74.5,63.7,29.95,ENE,60,3.2,6.4,69,0.00,,,0.00,VWS V14.01,2013-07-24 18:24:00,
2013-07-24 14:29:00,74.3,64.3,29.95,North,9,3.2,6.4,71,0.00,,,0.00,VWS V14.01,2013-07-24 18:29:00,
2013-07-24 14:34:00,74.2,64.2,29.95,NNW,331,3.2,6.4,71,0.00,,,0.00,VWS V14.01,2013-07-24 18:34:00,
2013-07-24 14:39:00,73.8,63.8,29.95,NNE,15,8.0,9.6,71,0.00,,,0.00,VWS V14.01,2013-07-24 18:39:00,
2013-07-24 14:44:00,73.5,63.5,29.95,NE,41,1.6,3.2,71,0.00,,,0.00,VWS V14.01,2013-07-24 18:44:00,
2013-07-24 14:49:00,73.9,63.9,29.95,NNE,30,3.2,6.4,71,0.00,,,0.00,VWS V14.01,2013-07-24 18:49:00,
2013-07-24 14:54:00,73.9,64.3,29.95,NW,326,1.6,6.4,72,0.00,,,0.00,VWS V14.01,2013-07-24 18:54:00,
2013-07-24 14:59:00,74.6,65.0,29.95,North,5,6.4,6.4,72,0.00,,,0.00,VWS V14.01,2013-07-24 18:59:00,
2013-07-24 15:04:00,75.5,62.9,29.95,ENE,73,1.6,3.2,65,0.00,,,0.00,VWS V14.01,2013-07-24 19:04:00,
2013-07-24 15:09:00,76.0,63.4,29.95,NW,314,1.6,8.0,65,0.00,,,0.00,VWS V14.01,2013-07-24 19:09:00,
2013-07-24 15:14:00,76.1,63.9,29.95,NNE,19,6.4,9.6,66,0.00,,,0.00,VWS V14.01,2013-07-24 19:14:00,
2013-07-24 15:19:00,75.9,65.0,29.95,North,2,8.0,8.0,69,0.00,,,0.00,VWS V14.01,2013-07-24 19:19:00,
2013-07-24 15:24:00,76.0,65.1,29.95,NW,305,4.8,8.0,69,0.00,,,0.00,VWS V14.01,2013-07-24 19:24:00,
2013-07-24 15:29:00,76.0,64.7,29.95,NW,308,4.8,9.6,68,0.00,,,0.00,VWS V14.01,2013-07-24 19:29:00,
2013-07-24 15:34:00,76.4,64.6,29.95,North,355,11.2,11.2,67,0.00,,,0.00,VWS V14.01,2013-07-24 19:34:00,
2013-07-24 15:39:00,76.8,63.7,29.95,North,353,4.8,6.4,64,0.00,,,0.00,VWS V14.01,2013-07-24 19:39:00,
2013-07-24 15:44:00,77.1,65.3,29.95,NE,43,1.6,4.8,67,0.00,,,0.00,VWS V14.01,2013-07-24 19:44:00,
2013-07-24 15:49:00,77.6,64.0,29.95,East,89,3.2,8.0,63,0.00,,,0.00,VWS V14.01,2013-07-24 19:49:00,
2013-07-24 15:54:00,77.6,63.6,29.95,NNE,13,3.2,9.6,62,0.00,,,0.00,VWS V14.01,2013-07-24 19:54:00,
2013-07-24 15:59:00,77.7,63.7,29.95,NE,56,8.0,9.6,62,0.00,,,0.00,VWS V14.01,2013-07-24 19:59:00,
2013-07-24 16:04:00,77.6,63.6,29.95,WNW,297,3.2,9.6,62,0.00,,,0.00,VWS V14.01,2013-07-24 20:04:00,
2013-07-24 16:09:00,77.9,64.3,29.94,East,89,3.2,4.8,63,0.00,,,0.00,VWS V14.01,2013-07-24 20:09:00,
2013-07-24 16:14:00,78.4,63.8,29.94,East,101,1.6,4.8,61,0.00,,,0.00,VWS V14.01,2013-07-24 20:14:00,
2013-07-24 16:19:00,78.9,63.8,29.94,NE,41,9.6,9.6,60,0.00,,,0.00,VWS V14.01,2013-07-24 20:19:00,
2013-07-24 16:24:00,78.5,63.5,29.94,ENE,64,1.6,6.4,60,0.00,,,0.00,VWS V14.01,2013-07-24 20:24:00,
2013-07-24 16:29:00,78.0,63.9,29.94,NE,40,4.8,11.2,62,0.00,,,0.00,VWS V14.01,2013-07-24 20:29:00,
2013-07-24 16:34:00,78.1,63.6,29.94,East,98,0.0,4.8,61,0.00,,,0.00,VWS V14.01,2013-07-24 20:34:00,
2013-07-24 16:39:00,79.2,64.6,29.93,North,8,3.2,4.8,61,0.00,,,0.00,VWS V14.01,2013-07-24 20:39:00,
2013-07-24 16:44:00,78.8,63.8,29.93,ENE,75,1.6,8.0,60,0.00,,,0.00,VWS V14.01,2013-07-24 20:44:00,
2013-07-24 16:49:00,79.2,64.6,29.93,NNW,341,4.8,6.4,61,0.00,,,0.00,VWS V14.01,2013-07-24 20:49:00,
2013-07-24 16:54:00,79.6,64.5,29.93,NE,42,3.2,6.4,60,0.00,,,0.00,VWS V14.01,2013-07-24 20:54:00,
2013-07-24 16:59:00,79.8,64.2,29.93,North,359,4.8,8.0,59,0.00,,,0.00,VWS V14.01,2013-07-24 20:59:00,
2013-07-24 17:04:00,79.2,64.6,29.93,NNE,30,4.8,6.4,61,0.00,,,0.00,VWS V14.01,2013-07-24 21:04:00,
2013-07-24 17:09:00,79.4,64.3,29.93,SE,130,0.0,1.6,60,0.00,,,0.00,VWS V14.01,2013-07-24 21:09:00,
2013-07-24 17:14:00,80.0,63.9,29.93,NW,318,1.6,4.8,58,0.00,,,0.00,VWS V14.01,2013-07-24 21:14:00,
2013-07-24 17:19:00,79.5,65.3,29.93,NE,35,3.2,8.0,62,0.00,,,0.00,VWS V14.01,2013-07-24 21:19:00,
2013-07-24 17:24:00,79.5,65.3,29.93,West,272,0.0,4.8,62,0.00,,,0.00,VWS V14.01,2013-07-24 21:24:00,
2013-07-24 17:29:00,79.9,65.3,29.93,NW,310,3.2,6.4,61,0.00,,,0.00,VWS V14.01,2013-07-24 21:29:00,
2013-07-24 17:34:00,80.0,64.4,29.93,NE,54,3.2,4.8,59,0.00,,,0.00,VWS V14.01,2013-07-24 21:34:00,
2013-07-24 17:39:00,79.7,65.1,29.93,NNE,30,8.0,12.8,61,0.00,,,0.00,VWS V14.01,2013-07-24 21:39:00,
2013-07-24 17:44:00,79.3,65.2,29.92,NNE,30,6.4,8.0,62,0.00,,,0.00,VWS V14.01,2013-07-24 21:44:00,
2013-07-24 17:49:00,79.3,64.7,29.92,NNW,336,1.6,6.4,61,0.00,,,0.00,VWS V14.01,2013-07-24 21:49:00,
2013-07-24 17:54:00,78.9,64.3,29.92,West,275,0.0,8.0,61,0.00,,,0.00,VWS V14.01,2013-07-24 21:54:00,
2013-07-24 17:59:00,79.7,65.1,29.92,North,9,3.2,3.2,61,0.00,,,0.00,VWS V14.01,2013-07-24 21:59:00,
2013-07-24 18:04:00,79.8,64.2,29.92,NNE,13,4.8,6.4,59,0.00,,,0.00,VWS V14.01,2013-07-24 22:04:00,
2013-07-24 18:09:00,79.7,65.5,29.92,North,4,3.2,4.8,62,0.00,,,0.00,VWS V14.01,2013-07-24 22:09:00,
2013-07-24 18:14:00,79.4,64.8,29.92,NNE,27,6.4,6.4,61,0.00,,,0.00,VWS V14.01,2013-07-24 22:14:00,
2013-07-24 18:19:00,78.3,64.7,29.92,NNE,19,1.6,8.0,63,0.00,,,0.00,VWS V14.01,2013-07-24 22:19:00,
2013-07-24 18:24:00,77.6,65.3,29.92,NNW,340,1.6,3.2,66,0.00,,,0.00,VWS V14.01,2013-07-24 22:24:00,
2013-07-24 18:29:00,77.9,65.2,29.92,NW,313,3.2,6.4,65,0.00,,,0.00,VWS V14.01,2013-07-24 22:29:00,
2013-07-24 18:34:00,78.6,64.5,29.92,NNE,29,4.8,8.0,62,0.00,,,0.00,VWS V14.01,2013-07-24 22:34:00,
2013-07-24 18:39:00,78.6,65.0,29.92,NNW,336,8.0,8.0,63,0.00,,,0.00,VWS V14.01,2013-07-24 22:39:00,
2013-07-24 18:44:00,77.9,64.3,29.92,NNE,16,4.8,9.6,63,0.00,,,0.00,VWS V14.01,2013-07-24 22:44:00,
2013-07-24 18:49:00,77.5,64.4,29.92,NW,324,6.4,6.4,64,0.00,,,0.00,VWS V14.01,2013-07-24 22:49:00,
2013-07-24 18:54:00,77.6,64.0,29.92,NNE,22,3.2,8.0,63,0.00,,,0.00,VWS V14.01,2013-07-24 22:54:00,
2013-07-24 18:59:00,77.0,64.3,29.93,NNE,18,3.2,4.8,65,0.00,,,0.00,VWS V14.01,2013-07-24 22:59:00,
2013-07-24 19:04:00,76.9,64.7,29.93,NNW,341,1.6,6.4,66,0.00,,,0.00,VWS V14.01,2013-07-24 23:04:00,
2013-07-24 19:09:00,77.3,65.1,29.93,North,352,4.8,4.8,66,0.00,,,0.00,VWS V14.01,2013-07-24 23:09:00,
2013-07-24 19:14:00,77.5,63.9,29.93,NE,34,6.4,11.2,63,0.00,,,0.00,VWS V14.01,2013-07-24 23:14:00,
2013-07-24 19:19:00,77.7,64.6,29.93,NNE,18,3.2,8.0,64,0.00,,,0.00,VWS V14.01,2013-07-24 23:19:00,
2013-07-24 19:24:00,78.2,65.0,29.93,North,5,1.6,3.2,64,0.00,,,0.00,VWS V14.01,2013-07-24 23:24:00,
2013-07-24 19:29:00,78.5,64.9,29.93,North,10,3.2,4.8,63,0.00,,,0.00,VWS V14.01,2013-07-24 23:29:00,
2013-07-24 19:34:00,78.5,64.4,29.93,NNE,22,4.8,8.0,62,0.00,,,0.00,VWS V14.01,2013-07-24 23:34:00,
2013-07-24 19:39:00,78.3,64.7,29.93,North,359,1.6,6.4,63,0.00,,,0.00,VWS V14.01,2013-07-24 23:39:00,
2013-07-24 19:44:00,78.5,64.9,29.94,North,350,6.4,8.0,63,0.00,,,0.00,VWS V14.01,2013-07-24 23:44:00,
2013-07-24 19:49:00,78.1,64.9,29.94,NW,305,1.6,6.4,64,0.00,,,0.00,VWS V14.01,2013-07-24 23:49:00,
2013-07-24 19:54:00,78.1,65.4,29.94,North,11,1.6,3.2,65,0.00,,,0.00,VWS V14.01,2013-07-24 23:54:00,
2013-07-24 19:59:00,78.0,64.8,29.94,NNE,14,1.6,8.0,64,0.00,,,0.00,VWS V14.01,2013-07-24 23:59:00,
2013-07-24 20:04:00,77.5,64.4,29.94,NNE,15,0.0,4.8,64,0.00,,,0.00,VWS V14.01,2013-07-25 00:04:00,
2013-07-24 20:09:00,77.5,64.8,29.94,NNW,333,1.6,3.2,65,0.00,,,0.00,VWS V14.01,2013-07-25 00:09:00,
2013-07-24 20:14:00,77.3,64.2,29.94,NW,326,0.0,3.2,64,0.00,,,0.00,VWS V14.01,2013-07-25 00:14:00,
2013-07-24 20:19:00,77.0,64.8,29.95,NNW,328,0.0,3.2,66,0.00,,,0.00,VWS V14.01,2013-07-25 00:19:00,
2013-07-24 20:24:00,76.2,64.4,29.95,NNW,342,0.0,3.2,67,0.00,,,0.00,VWS V14.01,2013-07-25 00:24:00,
2013-07-24 20:29:00,75.4,64.1,29.95,NNW,343,0.0,1.6,68,0.00,,,0.00,VWS V14.01,2013-07-25 00:29:00,
2013-07-24 20:34:00,74.9,64.5,29.95,NNW,332,0.0,1.6,70,0.00,,,0.00,VWS V14.01,2013-07-25 00:34:00,
2013-07-24 20:39:00,74.5,64.5,29.95,NNW,332,0.0,0.0,71,0.00,,,0.00,VWS V14.01,2013-07-25 00:39:00,
2013-07-24 20:44:00,73.9,63.5,29.95,NNW,331,0.0,3.2,70,0.00,,,0.00,VWS V14.01,2013-07-25 00:44:00,
2013-07-24 20:49:00,73.4,63.8,29.96,NNW,332,0.0,1.6,72,0.00,,,0.00,VWS V14.01,2013-07-25 00:49:00,
2013-07-24 20:54:00,73.2,64.0,29.96,NNW,331,0.0,0.0,73,0.00,,,0.00,VWS V14.01,2013-07-25 00:54:00,
2013-07-24 20:59:00,73.0,63.8,29.96,NNW,332,0.0,0.0,73,0.00,,,0.00,VWS V14.01,2013-07-25 00:59:00,
2013-07-24 21:04:00,72.8,63.7,29.96,NNW,347,0.0,0.0,73,0.00,,,0.00,VWS V14.01,2013-07-25 01:04:00,
2013-07-24 21:09:00,72.4,63.7,29.96,NNW,347,0.0,1.6,74,0.00,,,0.00,VWS V14.01,2013-07-25 01:09:00,
2013-07-24 21:14:00,72.1,63.8,29.96,NNW,347,0.0,1.6,75,0.00,,,0.00,VWS V14.01,2013-07-25 01:14:00,
2013-07-24 21:19:00,71.8,63.8,29.96,NNW,347,0.0,1.6,76,0.00,,,0.00,VWS V14.01,2013-07-25 01:19:00,
2013-07-24 21:24:00,71.6,64.0,29.96,NNW,348,0.0,0.0,77,0.00,,,0.00,VWS V14.01,2013-07-25 01:24:00,
2013-07-24 21:29:00,71.3,63.7,29.96,NNW,347,0.0,0.0,77,0.00,,,0.00,VWS V14.01,2013-07-25 01:29:00,
2013-07-24 21:34:00,70.9,63.7,29.96,NNW,348,1.6,1.6,78,0.00,,,0.00,VWS V14.01,2013-07-25 01:34:00,
2013-07-24 21:39:00,70.8,63.6,29.96,North,2,0.0,1.6,78,0.00,,,0.00,VWS V14.01,2013-07-25 01:39:00,
2013-07-24 21:44:00,70.7,63.9,29.96,NE,48,0.0,3.2,79,0.00,,,0.00,VWS V14.01,2013-07-25 01:44:00,
2013-07-24 21:49:00,70.5,63.7,29.96,NNE,21,1.6,3.2,79,0.00,,,0.00,VWS V14.01,2013-07-25 01:49:00,
2013-07-24 21:54:00,70.3,63.5,29.97,North,351,1.6,3.2,79,0.00,,,0.00,VWS V14.01,2013-07-25 01:54:00,
2013-07-24 21:59:00,70.1,63.7,29.97,NNE,18,0.0,3.2,80,0.00,,,0.00,VWS V14.01,2013-07-25 01:59:00,
2013-07-24 22:04:00,69.8,63.7,29.97,NNE,16,0.0,1.6,81,0.00,,,0.00,VWS V14.01,2013-07-25 02:04:00,
2013-07-24 22:09:00,69.5,63.4,29.97,NNE,16,0.0,0.0,81,0.00,,,0.00,VWS V14.01,2013-07-25 02:09:00,
2013-07-24 22:14:00,69.1,63.4,29.97,NNE,16,0.0,1.6,82,0.00,,,0.00,VWS V14.01,2013-07-25 02:14:00,
2013-07-24 22:19:00,68.9,63.5,29.97,North,5,0.0,0.0,83,0.00,,,0.00,VWS V14.01,2013-07-25 02:19:00,
2013-07-24 22:24:00,68.8,63.4,29.97,North,5,0.0,3.2,83,0.00,,,0.00,VWS V14.01,2013-07-25 02:24:00,
2013-07-24 22:29:00,68.6,63.2,29.97,NNE,18,0.0,3.2,83,0.00,,,0.00,VWS V14.01,2013-07-25 02:29:00,
2013-07-24 22:34:00,68.5,63.1,29.97,NE,44,1.6,3.2,83,0.00,,,0.00,VWS V14.01,2013-07-25 02:34:00,
2013-07-24 22:39:00,68.4,63.4,29.97,NNE,22,1.6,3.2,84,0.00,,,0.00,VWS V14.01,2013-07-25 02:39:00,
2013-07-24 22:44:00,68.3,63.3,29.98,NNW,348,0.0,1.6,84,0.00,,,0.00,VWS V14.01,2013-07-25 02:44:00,
2013-07-24 22:49:00,68.2,62.8,29.98,NNE,14,0.0,3.2,83,0.00,,,0.00,VWS V14.01,2013-07-25 02:49:00,
2013-07-24 22:54:00,68.0,63.0,29.98,NNE,30,1.6,1.6,84,0.00,,,0.00,VWS V14.01,2013-07-25 02:54:00,
2013-07-24 22:59:00,67.9,62.9,29.98,NNE,19,1.6,3.2,84,0.00,,,0.00,VWS V14.01,2013-07-25 02:59:00,
2013-07-24 23:04:00,67.8,62.8,29.98,NNE,12,3.2,3.2,84,0.00,,,0.00,VWS V14.01,2013-07-25 03:04:00,
2013-07-24 23:09:00,67.7,62.7,29.98,NE,47,3.2,3.2,84,0.00,,,0.00,VWS V14.01,2013-07-25 03:09:00,
2013-07-24 23:14:00,67.6,62.6,29.98,North,11,4.8,4.8,84,0.00,,,0.00,VWS V14.01,2013-07-25 03:14:00,
2013-07-24 23:19:00,67.6,62.6,29.99,NNE,27,3.2,6.4,84,0.00,,,0.00,VWS V14.01,2013-07-25 03:19:00,
2013-07-24 23:24:00,67.6,62.6,29.99,NE,42,1.6,4.8,84,0.00,,,0.00,VWS V14.01,2013-07-25 03:24:00,
2013-07-24 23:29:00,67.8,62.8,29.99,NE,54,1.6,8.0,84,0.00,,,0.00,VWS V14.01,2013-07-25 03:29:00,
2013-07-24 23:34:00,67.9,62.9,29.99,North,359,3.2,4.8,84,0.00,,,0.00,VWS V14.01,2013-07-25 03:34:00,
2013-07-24 23:39:00,67.9,62.5,29.99,NE,39,8.0,9.6,83,0.00,,,0.00,VWS V14.01,2013-07-25 03:39:00,
2013-07-24 23:44:00,68.0,62.7,29.99,North,11,6.4,8.0,83,0.00,,,0.00,VWS V14.01,2013-07-25 03:44:00,
2013-07-24 23:49:00,68.0,62.7,29.99,North,11,4.8,8.0,83,0.00,,,0.00,VWS V14.01,2013-07-25 03:49:00,
2013-07-24 23:54:00,68.0,62.7,29.99,North,353,6.4,8.0,83,0.00,,,0.00,VWS V14.01,2013-07-25 03:54:00,
2013-07-24 23:59:00,67.9,62.5,30.00,NNE,33,4.8,8.0,83,0.00,,,0.00,VWS V14.01,2013-07-25 03:59:00,